• Join FlightAware (Why Join?)
  • Login
  • US Flag 
10:07PM EDT


 

Airport Tracker/Info


-or-


 

Live Flight TrackerFlight Track Log ✈ RPA3196 ✈ 14-May-2013 ✈ KPHL - KBTV

Flight Track Log - Related Links

Times and Time Zones

All times are in EDT time to prevent confusion due to time zone crossing. See the RPA3196 flight status page for this flight to view local times or setup timezone preferences in your user account.

Time Position Orientation Groundspeed Altitude Reporting Facility
EDT Latitude Longitude Course Direction KTS MPH feet Rate Location/Type
10:14AM 39.8667 -75.2667 37° Northeast 165 190 900  Level Philadelphia TRACON
10:14AM 39.8500 -75.2833 218° Southwest 150 173 1,800 2,460 Climbing Philadelphia TRACON
10:16AM 39.7988 -74.7770 105° East  Level FlightAware Approximate
10:16AM 39.7322 -75.3139 191° South 215 247 7,500  Level New York Center
10:17AM 39.8315 -74.6519 37° Northeast  Level FlightAware Approximate
10:17AM 39.7403 -75.2092 84° East 207 238 10,900  Level New York Center
10:18AM 39.9310 -74.5667 North  Level FlightAware Approximate
10:18AM 39.7514 -75.0775 84° East 291 335 12,000  Level New York Center
10:19AM 40.0281 -74.4719 37° Northeast  Level FlightAware Approximate
10:19AM 39.7664 -74.9489 81° East 359 413 12,000  Level New York Center
10:20AM 39.7814 -74.8172 82° East 366 421 12,000 1,080 Level New York Center
10:21AM 39.8150 -74.6922 71° East 366 421 14,200 2,340 Climbing New York Center
10:22AM 39.8967 -74.6156 36° Northeast 337 388 16,800 2,400 Climbing New York Center
10:23AM 39.9764 -74.5361 37° Northeast 337 388 19,000 2,100 Climbing New York Center
10:24AM 40.0603 -74.4567 36° Northeast 354 407 21,000 1,980 Climbing New York Center
10:25AM 40.1378 -74.3764 38° Northeast 381 438 23,000 1,740 Climbing New York Center
10:26AM 40.2278 -74.2889 37° Northeast 387 445 24,500 1,620 Climbing New York Center
10:27AM 40.3181 -74.1981 37° Northeast 401 461 26,300 780 Climbing New York Center
10:29AM 40.5061 -74.1214 17° North 396 456 27,000 180 Climbing Boston Center
10:30AM 40.6294 -74.0836 13° North 380 437 27,000  Level Boston Center
10:31AM 40.7467 -74.0508 12° North 380 437 27,000  Level Boston Center
10:32AM 40.8511 -74.0233 11° North 380 437 27,000  Level Boston Center
10:33AM 40.9581 -73.9903 13° North 380 437 27,000  Level Boston Center
10:34AM 41.0647 -73.9569 13° North 375 432 27,000  Level Boston Center
10:35AM 41.1694 -73.9236 13° North 375 432 27,000  Level Boston Center
10:36AM 41.2614 -73.8953 13° North 375 432 27,000  Level Boston Center
10:37AM 41.3892 -73.8567 13° North 375 432 27,000  Level Boston Center
10:38AM 41.4956 -73.8342 North 375 432 27,000  Level Boston Center
10:39AM 41.6000 -73.8114 North 375 432 27,000  Level Boston Center
10:40AM 41.7089 -73.7861 10° North 380 437 27,000  Level Boston Center
10:41AM 41.8133 -73.7686 North 380 437 27,000  Level Boston Center
10:42AM 41.9219 -73.7431 10° North 380 437 27,000  Level Boston Center
10:43AM 42.0283 -73.7203 North 386 444 27,000  Level Boston Center
10:44AM 42.1392 -73.6889 12° North 391 450 27,000  Level Boston Center
10:45AM 42.2269 -73.6708 North 391 450 27,000  Level Boston Center
10:46AM 42.3544 -73.6453 North 391 450 27,000  Level Boston Center
10:47AM 42.4608 -73.6219 North 391 450 27,000  Level Boston Center
10:48AM 42.5717 -73.5989 North 391 450 27,000  Level Boston Center
10:49AM 42.6822 -73.5756 North 391 450 27,000  Level Boston Center
10:50AM 42.7889 -73.5464 11° North 391 450 27,000  Level Boston Center
10:51AM 42.9081 -73.5200 North 391 450 27,000  Level Boston Center
10:52AM 43.0167 -73.4936 10° North 391 450 27,000  Level Boston Center
10:53AM 43.1272 -73.4700 North 391 450 27,000 -300 Level Boston Center
10:54AM 43.2256 -73.4431 11° North 391 450 26,500 -1,260 Descending Boston Center
10:55AM 43.3297 -73.4192 North 391 450 24,500 -1,260 Descending Boston Center
10:56AM 43.4322 -73.3978 North 381 438 24,000 -300 Descending Boston Center
10:57AM 43.5386 -73.3708 10° North 381 438 24,000 -1,080 Level Boston Center
10:58AM 43.6408 -73.3494 North 376 433 21,900 -2,340 Descending Boston Center
10:59AM 43.7369 -73.3281 North 366 421 19,400 -2,520 Descending Boston Center
11:00AM 43.8331 -73.3036 10° North 354 407 16,900 -2,700 Descending Boston Center
11:01AM 43.9269 -73.2819 North 349 402 14,000 -3,000 Descending Boston Center
11:02AM 44.0189 -73.2600 10° North 344 396 11,000 -1,980 Descending Boston Center
11:03AM 44.1022 -73.2408 North 323 372 10,100 -1,080 Descending Boston Center
11:04AM 44.1669 -73.2272 North 276 318 8,900 -1,560 Descending Boston Center
11:05AM 44.2214 -73.1961 22° Northeast 230 265 7,000 -1,860 Descending Boston Center
11:06AM 44.2800 -73.1475 31° Northeast 208 239 5,200 -1,380 Descending Boston Center
11:07AM 44.3261 -73.1075 32° Northeast 197 227 4,300 -840 Descending Boston Center
11:08AM 44.3597 -73.0644 42° Northeast 171 197 3,600 -900 Descending Boston Center
11:09AM 44.3931 -73.0472 20° North 144 166 2,600 -1,020 Descending Boston Center